sensor_id;sensor_type;location;lat;lon;timestamp;P1;durP1;ratioP1;P2;durP2;ratioP2
13147;SDS011;6639;50.956;4.242;2023-04-01T00:01:16;6.88;;;1.67;;
13147;SDS011;6639;50.956;4.242;2023-04-01T00:03:43;3.38;;;1.55;;
13147;SDS011;6639;50.956;4.242;2023-04-01T00:06:10;2.40;;;1.10;;
13147;SDS011;6639;50.956;4.242;2023-04-01T00:08:38;4.95;;;1.25;;
13147;SDS011;6639;50.956;4.242;2023-04-01T00:11:07;6.10;;;1.42;;
13147;SDS011;6639;50.956;4.242;2023-04-01T00:13:33;2.72;;;1.42;;
13147;SDS011;6639;50.956;4.242;2023-04-01T00:16:00;6.22;;;1.58;;
13147;SDS011;6639;50.956;4.242;2023-04-01T00:18:28;4.82;;;1.63;;
13147;SDS011;6639;50.956;4.242;2023-04-01T00:20:55;3.13;;;1.20;;
13147;SDS011;6639;50.956;4.242;2023-04-01T00:23:22;2.35;;;1.25;;
13147;SDS011;6639;50.956;4.242;2023-04-01T00:25:49;3.58;;;1.35;;
13147;SDS011;6639;50.956;4.242;2023-04-01T00:28:17;3.60;;;1.40;;
13147;SDS011;6639;50.956;4.242;2023-04-01T00:30:45;1.98;;;1.17;;
13147;SDS011;6639;50.956;4.242;2023-04-01T00:33:13;2.17;;;1.38;;
13147;SDS011;6639;50.956;4.242;2023-04-01T00:35:40;3.83;;;1.55;;
13147;SDS011;6639;50.956;4.242;2023-04-01T00:38:07;3.58;;;1.40;;
13147;SDS011;6639;50.956;4.242;2023-04-01T00:40:37;3.47;;;1.98;;
13147;SDS011;6639;50.956;4.242;2023-04-01T00:43:08;4.10;;;1.98;;
13147;SDS011;6639;50.956;4.242;2023-04-01T00:45:40;4.13;;;1.88;;
13147;SDS011;6639;50.956;4.242;2023-04-01T00:48:10;3.10;;;2.08;;
13147;SDS011;6639;50.956;4.242;2023-04-01T00:50:40;4.97;;;2.20;;
13147;SDS011;6639;50.956;4.242;2023-04-01T00:53:10;4.30;;;2.13;;
13147;SDS011;6639;50.956;4.242;2023-04-01T00:55:39;4.50;;;1.85;;
13147;SDS011;6639;50.956;4.242;2023-04-01T00:58:11;4.03;;;2.42;;
13147;SDS011;6639;50.956;4.242;2023-04-01T01:00:42;2.50;;;2.20;;
13147;SDS011;6639;50.956;4.242;2023-04-01T01:03:09;2.60;;;2.40;;
13147;SDS011;6639;50.956;4.242;2023-04-01T01:05:40;6.75;;;2.88;;
13147;SDS011;6639;50.956;4.242;2023-04-01T01:08:23;6.18;;;3.10;;
13147;SDS011;6639;50.956;4.242;2023-04-01T01:11:02;4.68;;;2.78;;
13147;SDS011;6639;50.956;4.242;2023-04-01T01:13:36;5.63;;;3.15;;
13147;SDS011;6639;50.956;4.242;2023-04-01T01:16:12;5.45;;;2.90;;
13147;SDS011;6639;50.956;4.242;2023-04-01T01:18:44;5.20;;;2.97;;
13147;SDS011;6639;50.956;4.242;2023-04-01T01:21:39;9.35;;;3.72;;
13147;SDS011;6639;50.956;4.242;2023-04-01T01:24:23;5.15;;;3.00;;
13147;SDS011;6639;50.956;4.242;2023-04-01T01:27:09;2.83;;;2.30;;
13147;SDS011;6639;50.956;4.242;2023-04-01T01:29:52;3.25;;;2.95;;
13147;SDS011;6639;50.956;4.242;2023-04-01T01:32:51;3.83;;;2.85;;
13147;SDS011;6639;50.956;4.242;2023-04-01T01:35:27;4.90;;;3.47;;
13147;SDS011;6639;50.956;4.242;2023-04-01T01:37:58;4.57;;;3.50;;
13147;SDS011;6639;50.956;4.242;2023-04-01T01:40:27;3.35;;;2.95;;
13147;SDS011;6639;50.956;4.242;2023-04-01T01:42:58;6.35;;;3.33;;
13147;SDS011;6639;50.956;4.242;2023-04-01T01:45:28;4.07;;;2.92;;
13147;SDS011;6639;50.956;4.242;2023-04-01T01:47:59;3.92;;;3.22;;
13147;SDS011;6639;50.956;4.242;2023-04-01T01:50:29;4.28;;;3.55;;
13147;SDS011;6639;50.956;4.242;2023-04-01T01:53:00;6.88;;;3.47;;
13147;SDS011;6639;50.956;4.242;2023-04-01T01:55:29;5.18;;;3.47;;
13147;SDS011;6639;50.956;4.242;2023-04-01T01:57:58;6.78;;;4.00;;
13147;SDS011;6639;50.956;4.242;2023-04-01T02:00:28;5.18;;;3.03;;
13147;SDS011;6639;50.956;4.242;2023-04-01T02:02:55;4.90;;;2.80;;
13147;SDS011;6639;50.956;4.242;2023-04-01T02:05:24;3.65;;;2.47;;
13147;SDS011;6639;50.956;4.242;2023-04-01T02:07:57;7.40;;;3.38;;
13147;SDS011;6639;50.956;4.242;2023-04-01T02:10:28;4.70;;;3.63;;
13147;SDS011;6639;50.956;4.242;2023-04-01T02:12:59;4.25;;;3.10;;
13147;SDS011;6639;50.956;4.242;2023-04-01T02:15:32;6.50;;;3.40;;
13147;SDS011;6639;50.956;4.242;2023-04-01T02:18:03;5.72;;;3.55;;
13147;SDS011;6639;50.956;4.242;2023-04-01T02:20:31;4.88;;;3.10;;
13147;SDS011;6639;50.956;4.242;2023-04-01T02:23:00;5.00;;;3.00;;
13147;SDS011;6639;50.956;4.242;2023-04-01T02:25:28;4.97;;;2.88;;
13147;SDS011;6639;50.956;4.242;2023-04-01T02:27:57;5.10;;;3.20;;
13147;SDS011;6639;50.956;4.242;2023-04-01T02:30:26;6.53;;;3.05;;
13147;SDS011;6639;50.956;4.242;2023-04-01T02:32:55;5.82;;;2.65;;
13147;SDS011;6639;50.956;4.242;2023-04-01T02:35:23;6.35;;;2.95;;
13147;SDS011;6639;50.956;4.242;2023-04-01T02:37:51;9.02;;;2.90;;
13147;SDS011;6639;50.956;4.242;2023-04-01T02:40:23;5.10;;;2.58;;
13147;SDS011;6639;50.956;4.242;2023-04-01T02:42:50;4.80;;;2.92;;
13147;SDS011;6639;50.956;4.242;2023-04-01T02:45:17;5.25;;;2.97;;
13147;SDS011;6639;50.956;4.242;2023-04-01T02:47:44;5.28;;;2.45;;
13147;SDS011;6639;50.956;4.242;2023-04-01T02:50:11;3.97;;;2.40;;
13147;SDS011;6639;50.956;4.242;2023-04-01T02:52:38;4.75;;;3.08;;
13147;SDS011;6639;50.956;4.242;2023-04-01T02:55:05;6.88;;;2.97;;
13147;SDS011;6639;50.956;4.242;2023-04-01T02:57:33;4.88;;;2.97;;
13147;SDS011;6639;50.956;4.242;2023-04-01T03:00:00;5.28;;;2.80;;
13147;SDS011;6639;50.956;4.242;2023-04-01T03:02:28;6.85;;;3.42;;
13147;SDS011;6639;50.956;4.242;2023-04-01T03:04:55;5.32;;;3.50;;
13147;SDS011;6639;50.956;4.242;2023-04-01T03:07:22;7.35;;;3.50;;
13147;SDS011;6639;50.956;4.242;2023-04-01T03:09:49;6.90;;;3.60;;
13147;SDS011;6639;50.956;4.242;2023-04-01T03:12:16;7.28;;;4.30;;
13147;SDS011;6639;50.956;4.242;2023-04-01T03:14:45;8.05;;;4.00;;
13147;SDS011;6639;50.956;4.242;2023-04-01T03:17:11;9.13;;;4.50;;
13147;SDS011;6639;50.956;4.242;2023-04-01T03:19:38;9.48;;;4.85;;
13147;SDS011;6639;50.956;4.242;2023-04-01T03:22:05;8.57;;;5.35;;
13147;SDS011;6639;50.956;4.242;2023-04-01T03:24:32;8.23;;;4.28;;
13147;SDS011;6639;50.956;4.242;2023-04-01T03:26:59;7.75;;;4.80;;
13147;SDS011;6639;50.956;4.242;2023-04-01T03:29:26;10.07;;;4.40;;
13147;SDS011;6639;50.956;4.242;2023-04-01T03:31:54;12.57;;;5.07;;
13147;SDS011;6639;50.956;4.242;2023-04-01T03:34:22;9.18;;;5.78;;
13147;SDS011;6639;50.956;4.242;2023-04-01T03:36:50;10.13;;;5.25;;
13147;SDS011;6639;50.956;4.242;2023-04-01T03:39:17;8.95;;;5.97;;
13147;SDS011;6639;50.956;4.242;2023-04-01T03:41:44;7.93;;;5.30;;
13147;SDS011;6639;50.956;4.242;2023-04-01T03:44:11;8.73;;;5.68;;
13147;SDS011;6639;50.956;4.242;2023-04-01T03:46:39;10.55;;;6.03;;
13147;SDS011;6639;50.956;4.242;2023-04-01T03:49:07;10.25;;;5.90;;
13147;SDS011;6639;50.956;4.242;2023-04-01T03:51:36;12.98;;;6.60;;
13147;SDS011;6639;50.956;4.242;2023-04-01T03:54:04;8.98;;;5.82;;
13147;SDS011;6639;50.956;4.242;2023-04-01T03:56:31;9.10;;;5.70;;
13147;SDS011;6639;50.956;4.242;2023-04-01T03:58:58;10.25;;;6.13;;
13147;SDS011;6639;50.956;4.242;2023-04-01T04:01:28;14.02;;;6.05;;
13147;SDS011;6639;50.956;4.242;2023-04-01T04:03:54;7.97;;;5.70;;
13147;SDS011;6639;50.956;4.242;2023-04-01T04:06:23;7.93;;;4.90;;
13147;SDS011;6639;50.956;4.242;2023-04-01T04:08:51;8.98;;;5.88;;
13147;SDS011;6639;50.956;4.242;2023-04-01T04:11:18;8.30;;;6.10;;
13147;SDS011;6639;50.956;4.242;2023-04-01T04:13:45;6.72;;;4.38;;
13147;SDS011;6639;50.956;4.242;2023-04-01T04:16:14;7.97;;;4.88;;
13147;SDS011;6639;50.956;4.242;2023-04-01T04:18:42;5.28;;;4.05;;
13147;SDS011;6639;50.956;4.242;2023-04-01T04:21:11;9.10;;;4.53;;
13147;SDS011;6639;50.956;4.242;2023-04-01T04:23:40;4.40;;;4.00;;
13147;SDS011;6639;50.956;4.242;2023-04-01T04:26:08;5.30;;;4.22;;
13147;SDS011;6639;50.956;4.242;2023-04-01T04:28:37;6.15;;;3.83;;
13147;SDS011;6639;50.956;4.242;2023-04-01T04:31:04;3.92;;;3.53;;
13147;SDS011;6639;50.956;4.242;2023-04-01T04:33:31;3.33;;;3.03;;
13147;SDS011;6639;50.956;4.242;2023-04-01T04:35:59;5.95;;;3.50;;
13147;SDS011;6639;50.956;4.242;2023-04-01T04:38:26;3.00;;;2.75;;
13147;SDS011;6639;50.956;4.242;2023-04-01T04:40:54;3.15;;;2.83;;
13147;SDS011;6639;50.956;4.242;2023-04-01T04:43:22;2.75;;;2.55;;
13147;SDS011;6639;50.956;4.242;2023-04-01T04:45:49;2.47;;;2.28;;
13147;SDS011;6639;50.956;4.242;2023-04-01T04:48:16;2.50;;;2.40;;
13147;SDS011;6639;50.956;4.242;2023-04-01T04:50:45;3.63;;;2.40;;
13147;SDS011;6639;50.956;4.242;2023-04-01T04:53:14;2.58;;;2.40;;
13147;SDS011;6639;50.956;4.242;2023-04-01T04:55:44;2.60;;;2.40;;
13147;SDS011;6639;50.956;4.242;2023-04-01T04:58:13;3.03;;;2.70;;
13147;SDS011;6639;50.956;4.242;2023-04-01T05:00:41;2.80;;;2.60;;
13147;SDS011;6639;50.956;4.242;2023-04-01T05:03:08;4.00;;;2.80;;
13147;SDS011;6639;50.956;4.242;2023-04-01T05:05:36;3.55;;;2.88;;
13147;SDS011;6639;50.956;4.242;2023-04-01T05:08:03;2.85;;;2.40;;
13147;SDS011;6639;50.956;4.242;2023-04-01T05:10:30;5.20;;;2.72;;
13147;SDS011;6639;50.956;4.242;2023-04-01T05:12:57;2.55;;;2.10;;
13147;SDS011;6639;50.956;4.242;2023-04-01T05:15:26;2.15;;;2.03;;
13147;SDS011;6639;50.956;4.242;2023-04-01T05:17:53;2.65;;;2.45;;
13147;SDS011;6639;50.956;4.242;2023-04-01T05:20:20;2.22;;;2.03;;
13147;SDS011;6639;50.956;4.242;2023-04-01T05:22:47;3.92;;;2.30;;
13147;SDS011;6639;50.956;4.242;2023-04-01T05:25:14;2.10;;;2.00;;
13147;SDS011;6639;50.956;4.242;2023-04-01T05:27:40;2.45;;;2.25;;
13147;SDS011;6639;50.956;4.242;2023-04-01T05:30:08;3.03;;;2.80;;
13147;SDS011;6639;50.956;4.242;2023-04-01T05:32:37;3.10;;;2.90;;
13147;SDS011;6639;50.956;4.242;2023-04-01T05:35:04;3.50;;;3.20;;
13147;SDS011;6639;50.956;4.242;2023-04-01T05:37:33;4.53;;;4.13;;
13147;SDS011;6639;50.956;4.242;2023-04-01T05:40:00;6.03;;;3.60;;
13147;SDS011;6639;50.956;4.242;2023-04-01T05:42:27;5.70;;;4.57;;
13147;SDS011;6639;50.956;4.242;2023-04-01T05:44:54;7.40;;;4.38;;
13147;SDS011;6639;50.956;4.242;2023-04-01T05:47:21;5.32;;;4.50;;
13147;SDS011;6639;50.956;4.242;2023-04-01T05:49:50;6.07;;;4.88;;
13147;SDS011;6639;50.956;4.242;2023-04-01T05:52:17;5.47;;;4.90;;
13147;SDS011;6639;50.956;4.242;2023-04-01T05:54:44;6.35;;;5.75;;
13147;SDS011;6639;50.956;4.242;2023-04-01T05:57:10;6.55;;;4.90;;
13147;SDS011;6639;50.956;4.242;2023-04-01T05:59:37;5.00;;;4.50;;
13147;SDS011;6639;50.956;4.242;2023-04-01T06:02:04;6.65;;;5.10;;
13147;SDS011;6639;50.956;4.242;2023-04-01T06:04:32;4.97;;;4.47;;
13147;SDS011;6639;50.956;4.242;2023-04-01T06:07:08;5.53;;;5.03;;
13147;SDS011;6639;50.956;4.242;2023-04-01T06:09:38;7.45;;;4.68;;
13147;SDS011;6639;50.956;4.242;2023-04-01T06:12:12;6.35;;;4.07;;
13147;SDS011;6639;50.956;4.242;2023-04-01T06:14:51;4.32;;;3.75;;
13147;SDS011;6639;50.956;4.242;2023-04-01T06:17:26;4.25;;;3.85;;
13147;SDS011;6639;50.956;4.242;2023-04-01T06:20:02;3.97;;;3.67;;
13147;SDS011;6639;50.956;4.242;2023-04-01T06:22:39;4.50;;;3.83;;
13147;SDS011;6639;50.956;4.242;2023-04-01T06:28:42;5.25;;;4.30;;
13147;SDS011;6639;50.956;4.242;2023-04-01T06:31:26;4.82;;;4.13;;
13147;SDS011;6639;50.956;4.242;2023-04-01T06:34:20;8.77;;;4.50;;
13147;SDS011;6639;50.956;4.242;2023-04-01T06:37:08;7.25;;;4.22;;
13147;SDS011;6639;50.956;4.242;2023-04-01T06:39:55;5.55;;;3.83;;
13147;SDS011;6639;50.956;4.242;2023-04-01T06:42:47;3.78;;;3.08;;
13147;SDS011;6639;50.956;4.242;2023-04-01T06:45:28;4.07;;;3.03;;
13147;SDS011;6639;50.956;4.242;2023-04-01T06:50:57;4.60;;;3.03;;
13147;SDS011;6639;50.956;4.242;2023-04-01T06:53:37;4.15;;;2.97;;
13147;SDS011;6639;50.956;4.242;2023-04-01T06:56:15;3.22;;;3.00;;
13147;SDS011;6639;50.956;4.242;2023-04-01T06:58:46;3.33;;;3.03;;
13147;SDS011;6639;50.956;4.242;2023-04-01T07:01:18;3.47;;;2.97;;
13147;SDS011;6639;50.956;4.242;2023-04-01T07:03:50;2.53;;;2.10;;
13147;SDS011;6639;50.956;4.242;2023-04-01T07:06:22;3.45;;;1.77;;
13147;SDS011;6639;50.956;4.242;2023-04-01T07:08:53;1.38;;;1.27;;
13147;SDS011;6639;50.956;4.242;2023-04-01T07:11:27;1.30;;;1.20;;
13147;SDS011;6639;50.956;4.242;2023-04-01T07:13:58;1.90;;;1.30;;
13147;SDS011;6639;50.956;4.242;2023-04-01T07:16:28;2.25;;;1.10;;
13147;SDS011;6639;50.956;4.242;2023-04-01T07:18:59;1.25;;;0.93;;
13147;SDS011;6639;50.956;4.242;2023-04-01T07:21:30;1.52;;;1.25;;
13147;SDS011;6639;50.956;4.242;2023-04-01T07:24:03;3.38;;;1.52;;
13147;SDS011;6639;50.956;4.242;2023-04-01T07:26:34;1.70;;;1.60;;
13147;SDS011;6639;50.956;4.242;2023-04-01T07:29:01;2.65;;;1.52;;
13147;SDS011;6639;50.956;4.242;2023-04-01T07:31:39;1.77;;;1.60;;
13147;SDS011;6639;50.956;4.242;2023-04-01T07:34:23;2.00;;;1.48;;
13147;SDS011;6639;50.956;4.242;2023-04-01T07:36:53;1.45;;;1.35;;
13147;SDS011;6639;50.956;4.242;2023-04-01T07:39:29;1.15;;;1.13;;
13147;SDS011;6639;50.956;4.242;2023-04-01T07:42:06;1.25;;;1.15;;
13147;SDS011;6639;50.956;4.242;2023-04-01T07:44:44;0.90;;;0.90;;
13147;SDS011;6639;50.956;4.242;2023-04-01T07:47:21;1.88;;;1.40;;
13147;SDS011;6639;50.956;4.242;2023-04-01T07:50:01;1.10;;;1.02;;
13147;SDS011;6639;50.956;4.242;2023-04-01T07:52:35;1.30;;;1.20;;
13147;SDS011;6639;50.956;4.242;2023-04-01T07:55:10;1.08;;;1.08;;
13147;SDS011;6639;50.956;4.242;2023-04-01T07:57:43;1.30;;;1.00;;
13147;SDS011;6639;50.956;4.242;2023-04-01T08:00:19;1.05;;;1.00;;
13147;SDS011;6639;50.956;4.242;2023-04-01T08:02:53;1.05;;;0.98;;
13147;SDS011;6639;50.956;4.242;2023-04-01T08:05:34;1.20;;;1.10;;
13147;SDS011;6639;50.956;4.242;2023-04-01T08:08:09;1.40;;;1.10;;
13147;SDS011;6639;50.956;4.242;2023-04-01T08:10:44;1.10;;;1.02;;
13147;SDS011;6639;50.956;4.242;2023-04-01T08:13:20;0.80;;;0.80;;
13147;SDS011;6639;50.956;4.242;2023-04-01T08:15:56;0.65;;;0.65;;
13147;SDS011;6639;50.956;4.242;2023-04-01T08:18:37;1.00;;;1.00;;
13147;SDS011;6639;50.956;4.242;2023-04-01T08:21:12;0.90;;;0.70;;
13147;SDS011;6639;50.956;4.242;2023-04-01T08:23:46;1.58;;;0.75;;
13147;SDS011;6639;50.956;4.242;2023-04-01T08:26:17;0.95;;;0.80;;
13147;SDS011;6639;50.956;4.242;2023-04-01T08:28:51;0.80;;;0.80;;
13147;SDS011;6639;50.956;4.242;2023-04-01T08:31:22;0.73;;;0.73;;
13147;SDS011;6639;50.956;4.242;2023-04-01T08:33:56;0.90;;;0.90;;
13147;SDS011;6639;50.956;4.242;2023-04-01T08:36:24;1.20;;;1.10;;
13147;SDS011;6639;50.956;4.242;2023-04-01T08:38:55;0.88;;;0.88;;
13147;SDS011;6639;50.956;4.242;2023-04-01T08:41:33;0.90;;;0.90;;
13147;SDS011;6639;50.956;4.242;2023-04-01T08:47:38;1.08;;;1.08;;
13147;SDS011;6639;50.956;4.242;2023-04-01T08:50:40;0.70;;;0.70;;
13147;SDS011;6639;50.956;4.242;2023-04-01T08:53:35;0.80;;;0.80;;
13147;SDS011;6639;50.956;4.242;2023-04-01T08:56:23;1.17;;;1.13;;
13147;SDS011;6639;50.956;4.242;2023-04-01T09:04:57;0.80;;;0.80;;
13147;SDS011;6639;50.956;4.242;2023-04-01T09:07:45;1.50;;;1.40;;
13147;SDS011;6639;50.956;4.242;2023-04-01T09:10:46;1.13;;;1.13;;
13147;SDS011;6639;50.956;4.242;2023-04-01T09:16:58;3.05;;;1.35;;
13147;SDS011;6639;50.956;4.242;2023-04-01T09:19:50;1.25;;;1.17;;
13147;SDS011;6639;50.956;4.242;2023-04-01T09:22:37;2.17;;;1.67;;
13147;SDS011;6639;50.956;4.242;2023-04-01T09:25:26;1.85;;;1.67;;
13147;SDS011;6639;50.956;4.242;2023-04-01T09:28:12;2.25;;;1.58;;
13147;SDS011;6639;50.956;4.242;2023-04-01T09:30:52;3.50;;;2.05;;
13147;SDS011;6639;50.956;4.242;2023-04-01T09:36:43;3.20;;;2.22;;
13147;SDS011;6639;50.956;4.242;2023-04-01T09:45:09;2.42;;;2.13;;
13147;SDS011;6639;50.956;4.242;2023-04-01T09:47:51;2.65;;;2.45;;
13147;SDS011;6639;50.956;4.242;2023-04-01T09:50:33;3.08;;;2.50;;
13147;SDS011;6639;50.956;4.242;2023-04-01T09:53:17;2.83;;;2.20;;
13147;SDS011;6639;50.956;4.242;2023-04-01T09:59:08;3.80;;;2.30;;
13147;SDS011;6639;50.956;4.242;2023-04-01T10:02:09;2.55;;;2.35;;
13147;SDS011;6639;50.956;4.242;2023-04-01T10:05:22;2.38;;;2.08;;
13147;SDS011;6639;50.956;4.242;2023-04-01T10:08:25;3.53;;;2.25;;
13147;SDS011;6639;50.956;4.242;2023-04-01T10:14:29;3.20;;;2.13;;
13147;SDS011;6639;50.956;4.242;2023-04-01T10:17:38;4.43;;;2.33;;
13147;SDS011;6639;50.956;4.242;2023-04-01T10:20:45;2.67;;;1.60;;
13147;SDS011;6639;50.956;4.242;2023-04-01T10:23:50;1.80;;;1.65;;
13147;SDS011;6639;50.956;4.242;2023-04-01T10:26:48;3.42;;;1.85;;
13147;SDS011;6639;50.956;4.242;2023-04-01T10:29:35;2.03;;;1.17;;
13147;SDS011;6639;50.956;4.242;2023-04-01T10:41:22;0.65;;;0.65;;
13147;SDS011;6639;50.956;4.242;2023-04-01T10:47:19;1.02;;;0.93;;
13147;SDS011;6639;50.956;4.242;2023-04-01T10:50:23;1.02;;;0.80;;
13147;SDS011;6639;50.956;4.242;2023-04-01T10:53:06;1.52;;;0.70;;
13147;SDS011;6639;50.956;4.242;2023-04-01T10:55:53;0.95;;;0.95;;
13147;SDS011;6639;50.956;4.242;2023-04-01T10:59:14;0.50;;;0.50;;
13147;SDS011;6639;50.956;4.242;2023-04-01T11:14:46;0.70;;;0.65;;
13147;SDS011;6639;50.956;4.242;2023-04-01T11:23:43;0.70;;;0.70;;
13147;SDS011;6639;50.956;4.242;2023-04-01T11:26:32;0.90;;;0.80;;
13147;SDS011;6639;50.956;4.242;2023-04-01T11:32:10;0.85;;;0.85;;
13147;SDS011;6639;50.956;4.242;2023-04-01T11:34:53;0.70;;;0.70;;
13147;SDS011;6639;50.956;4.242;2023-04-01T11:37:29;1.83;;;0.63;;
13147;SDS011;6639;50.956;4.242;2023-04-01T11:40:07;1.30;;;0.60;;
13147;SDS011;6639;50.956;4.242;2023-04-01T11:42:42;1.42;;;0.90;;
13147;SDS011;6639;50.956;4.242;2023-04-01T11:45:17;1.70;;;1.00;;
13147;SDS011;6639;50.956;4.242;2023-04-01T11:47:58;1.15;;;1.05;;
13147;SDS011;6639;50.956;4.242;2023-04-01T11:50:46;0.80;;;0.80;;
13147;SDS011;6639;50.956;4.242;2023-04-01T11:53:30;0.73;;;0.73;;
13147;SDS011;6639;50.956;4.242;2023-04-01T11:56:10;1.65;;;0.80;;
13147;SDS011;6639;50.956;4.242;2023-04-01T11:58:56;1.10;;;0.80;;
13147;SDS011;6639;50.956;4.242;2023-04-01T12:01:33;0.90;;;0.90;;
13147;SDS011;6639;50.956;4.242;2023-04-01T12:04:22;0.80;;;0.80;;
13147;SDS011;6639;50.956;4.242;2023-04-01T12:07:03;0.55;;;0.55;;
13147;SDS011;6639;50.956;4.242;2023-04-01T12:09:40;1.60;;;0.80;;
13147;SDS011;6639;50.956;4.242;2023-04-01T12:12:15;0.85;;;0.68;;
13147;SDS011;6639;50.956;4.242;2023-04-01T12:14:54;0.98;;;0.88;;
13147;SDS011;6639;50.956;4.242;2023-04-01T12:17:31;1.17;;;0.80;;
13147;SDS011;6639;50.956;4.242;2023-04-01T12:20:20;1.10;;;1.00;;
13147;SDS011;6639;50.956;4.242;2023-04-01T12:22:56;1.88;;;0.90;;
13147;SDS011;6639;50.956;4.242;2023-04-01T12:25:37;1.10;;;1.00;;
13147;SDS011;6639;50.956;4.242;2023-04-01T12:28:18;0.90;;;0.90;;
13147;SDS011;6639;50.956;4.242;2023-04-01T12:31:02;1.00;;;0.90;;
13147;SDS011;6639;50.956;4.242;2023-04-01T12:36:59;2.40;;;1.08;;
13147;SDS011;6639;50.956;4.242;2023-04-01T12:39:56;1.30;;;1.20;;
13147;SDS011;6639;50.956;4.242;2023-04-01T12:42:38;1.40;;;1.30;;
13147;SDS011;6639;50.956;4.242;2023-04-01T12:45:23;1.77;;;1.35;;
13147;SDS011;6639;50.956;4.242;2023-04-01T12:48:03;1.55;;;1.40;;
13147;SDS011;6639;50.956;4.242;2023-04-01T12:50:44;1.83;;;1.73;;
13147;SDS011;6639;50.956;4.242;2023-04-01T12:53:42;2.03;;;1.45;;
13147;SDS011;6639;50.956;4.242;2023-04-01T12:56:17;1.63;;;1.50;;
13147;SDS011;6639;50.956;4.242;2023-04-01T12:58:59;3.75;;;1.40;;
13147;SDS011;6639;50.956;4.242;2023-04-01T13:01:59;2.33;;;1.30;;
13147;SDS011;6639;50.956;4.242;2023-04-01T13:04:51;2.58;;;1.38;;
13147;SDS011;6639;50.956;4.242;2023-04-01T13:07:39;2.30;;;1.52;;
13147;SDS011;6639;50.956;4.242;2023-04-01T13:10:32;2.80;;;1.40;;
13147;SDS011;6639;50.956;4.242;2023-04-01T13:13:18;2.20;;;1.45;;
13147;SDS011;6639;50.956;4.242;2023-04-01T13:15:58;1.40;;;1.02;;
13147;SDS011;6639;50.956;4.242;2023-04-01T13:18:33;1.17;;;1.00;;
13147;SDS011;6639;50.956;4.242;2023-04-01T13:21:09;1.50;;;1.20;;
13147;SDS011;6639;50.956;4.242;2023-04-01T13:23:46;1.45;;;1.30;;
13147;SDS011;6639;50.956;4.242;2023-04-01T13:26:24;1.75;;;1.30;;
13147;SDS011;6639;50.956;4.242;2023-04-01T13:29:03;1.67;;;1.27;;
13147;SDS011;6639;50.956;4.242;2023-04-01T13:31:44;1.75;;;1.25;;
13147;SDS011;6639;50.956;4.242;2023-04-01T13:34:32;1.27;;;1.17;;
13147;SDS011;6639;50.956;4.242;2023-04-01T13:37:11;1.20;;;1.10;;
13147;SDS011;6639;50.956;4.242;2023-04-01T13:39:56;1.50;;;1.25;;
13147;SDS011;6639;50.956;4.242;2023-04-01T13:42:33;1.60;;;1.27;;
13147;SDS011;6639;50.956;4.242;2023-04-01T13:45:10;1.73;;;1.38;;
13147;SDS011;6639;50.956;4.242;2023-04-01T13:51:02;1.33;;;1.20;;
13147;SDS011;6639;50.956;4.242;2023-04-01T13:54:09;1.38;;;1.27;;
13147;SDS011;6639;50.956;4.242;2023-04-01T13:56:56;1.10;;;1.00;;
13147;SDS011;6639;50.956;4.242;2023-04-01T13:59:49;2.50;;;1.10;;
13147;SDS011;6639;50.956;4.242;2023-04-01T14:02:38;1.45;;;1.00;;
13147;SDS011;6639;50.956;4.242;2023-04-01T14:05:22;2.63;;;1.33;;
13147;SDS011;6639;50.956;4.242;2023-04-01T14:07:56;1.25;;;1.15;;
13147;SDS011;6639;50.956;4.242;2023-04-01T14:10:36;2.70;;;1.15;;
13147;SDS011;6639;50.956;4.242;2023-04-01T14:13:10;1.13;;;1.00;;
13147;SDS011;6639;50.956;4.242;2023-04-01T14:15:55;1.77;;;1.20;;
13147;SDS011;6639;50.956;4.242;2023-04-01T14:18:39;2.33;;;1.23;;
13147;SDS011;6639;50.956;4.242;2023-04-01T14:21:27;3.35;;;1.30;;
13147;SDS011;6639;50.956;4.242;2023-04-01T14:24:23;1.52;;;1.35;;
13147;SDS011;6639;50.956;4.242;2023-04-01T14:27:23;1.67;;;1.48;;
13147;SDS011;6639;50.956;4.242;2023-04-01T14:30:15;1.55;;;1.20;;
13147;SDS011;6639;50.956;4.242;2023-04-01T14:32:59;1.10;;;1.10;;
13147;SDS011;6639;50.956;4.242;2023-04-01T14:35:33;1.10;;;1.05;;
13147;SDS011;6639;50.956;4.242;2023-04-01T14:38:14;2.22;;;1.10;;
13147;SDS011;6639;50.956;4.242;2023-04-01T14:40:56;1.48;;;1.38;;
13147;SDS011;6639;50.956;4.242;2023-04-01T14:49:32;1.75;;;1.45;;
13147;SDS011;6639;50.956;4.242;2023-04-01T14:52:05;2.75;;;1.80;;
13147;SDS011;6639;50.956;4.242;2023-04-01T14:54:39;2.53;;;1.85;;
13147;SDS011;6639;50.956;4.242;2023-04-01T14:57:10;1.95;;;1.70;;
13147;SDS011;6639;50.956;4.242;2023-04-01T14:59:41;1.60;;;1.50;;
13147;SDS011;6639;50.956;4.242;2023-04-01T15:02:17;2.65;;;1.55;;
13147;SDS011;6639;50.956;4.242;2023-04-01T15:05:13;1.45;;;1.45;;
13147;SDS011;6639;50.956;4.242;2023-04-01T15:10:48;1.90;;;1.60;;
13147;SDS011;6639;50.956;4.242;2023-04-01T15:13:35;1.30;;;1.30;;
13147;SDS011;6639;50.956;4.242;2023-04-01T15:16:17;1.27;;;1.17;;
13147;SDS011;6639;50.956;4.242;2023-04-01T15:19:10;1.88;;;1.30;;
13147;SDS011;6639;50.956;4.242;2023-04-01T15:25:18;1.67;;;1.08;;
13147;SDS011;6639;50.956;4.242;2023-04-01T15:27:57;1.20;;;1.10;;
13147;SDS011;6639;50.956;4.242;2023-04-01T15:30:33;1.27;;;1.23;;
13147;SDS011;6639;50.956;4.242;2023-04-01T15:33:14;1.13;;;1.08;;
13147;SDS011;6639;50.956;4.242;2023-04-01T15:35:56;1.10;;;0.93;;
13147;SDS011;6639;50.956;4.242;2023-04-01T15:38:31;0.77;;;0.77;;
13147;SDS011;6639;50.956;4.242;2023-04-01T15:41:19;2.25;;;1.20;;
13147;SDS011;6639;50.956;4.242;2023-04-01T15:43:51;0.90;;;0.90;;
13147;SDS011;6639;50.956;4.242;2023-04-01T15:46:24;1.35;;;1.02;;
13147;SDS011;6639;50.956;4.242;2023-04-01T15:49:20;1.10;;;1.00;;
13147;SDS011;6639;50.956;4.242;2023-04-01T15:52:06;1.00;;;0.85;;
13147;SDS011;6639;50.956;4.242;2023-04-01T15:54:50;1.38;;;0.90;;
13147;SDS011;6639;50.956;4.242;2023-04-01T15:57:32;0.80;;;0.80;;
13147;SDS011;6639;50.956;4.242;2023-04-01T16:00:11;1.05;;;0.90;;
13147;SDS011;6639;50.956;4.242;2023-04-01T16:02:47;0.68;;;0.68;;
13147;SDS011;6639;50.956;4.242;2023-04-01T16:05:23;1.90;;;1.02;;
13147;SDS011;6639;50.956;4.242;2023-04-01T16:08:00;1.40;;;0.90;;
13147;SDS011;6639;50.956;4.242;2023-04-01T16:10:49;1.70;;;1.13;;
13147;SDS011;6639;50.956;4.242;2023-04-01T16:13:27;1.20;;;1.10;;
13147;SDS011;6639;50.956;4.242;2023-04-01T16:16:13;1.30;;;1.20;;
13147;SDS011;6639;50.956;4.242;2023-04-01T16:21:48;1.40;;;1.30;;
13147;SDS011;6639;50.956;4.242;2023-04-01T16:24:21;1.45;;;1.25;;
13147;SDS011;6639;50.956;4.242;2023-04-01T16:26:57;2.55;;;1.40;;
13147;SDS011;6639;50.956;4.242;2023-04-01T16:29:35;3.38;;;1.40;;
13147;SDS011;6639;50.956;4.242;2023-04-01T16:35:20;2.45;;;1.50;;
13147;SDS011;6639;50.956;4.242;2023-04-01T16:37:56;1.20;;;1.20;;
13147;SDS011;6639;50.956;4.242;2023-04-01T16:40:35;1.58;;;1.20;;
13147;SDS011;6639;50.956;4.242;2023-04-01T16:43:11;2.35;;;1.42;;
13147;SDS011;6639;50.956;4.242;2023-04-01T16:45:51;3.40;;;1.40;;
13147;SDS011;6639;50.956;4.242;2023-04-01T16:48:25;3.45;;;1.67;;
13147;SDS011;6639;50.956;4.242;2023-04-01T16:51:02;2.20;;;1.52;;
13147;SDS011;6639;50.956;4.242;2023-04-01T16:53:37;1.23;;;1.17;;
13147;SDS011;6639;50.956;4.242;2023-04-01T16:56:10;1.65;;;1.52;;
13147;SDS011;6639;50.956;4.242;2023-04-01T16:58:40;1.55;;;1.40;;
13147;SDS011;6639;50.956;4.242;2023-04-01T17:01:16;1.60;;;1.50;;
13147;SDS011;6639;50.956;4.242;2023-04-01T17:03:49;3.25;;;1.42;;
13147;SDS011;6639;50.956;4.242;2023-04-01T17:06:22;1.20;;;1.10;;
13147;SDS011;6639;50.956;4.242;2023-04-01T17:09:02;1.85;;;1.10;;
13147;SDS011;6639;50.956;4.242;2023-04-01T17:11:48;2.35;;;1.20;;
13147;SDS011;6639;50.956;4.242;2023-04-01T17:14:24;1.20;;;1.10;;
13147;SDS011;6639;50.956;4.242;2023-04-01T17:17:06;1.40;;;1.40;;
13147;SDS011;6639;50.956;4.242;2023-04-01T17:22:53;1.80;;;1.70;;
13147;SDS011;6639;50.956;4.242;2023-04-01T17:25:33;2.67;;;1.45;;
13147;SDS011;6639;50.956;4.242;2023-04-01T17:28:16;3.03;;;2.30;;
13147;SDS011;6639;50.956;4.242;2023-04-01T17:30:55;2.00;;;1.80;;
13147;SDS011;6639;50.956;4.242;2023-04-01T17:33:31;1.70;;;1.60;;